sensor_id;sensor_type;location;lat;lon;timestamp;temperature;humidity
7030;DHT22;3556;53.500;10.176;2022-08-07T00:01:46;11.60;99.90
7030;DHT22;3556;53.500;10.176;2022-08-07T00:04:11;11.60;99.90
7030;DHT22;3556;53.500;10.176;2022-08-07T00:06:38;11.60;99.90
7030;DHT22;3556;53.500;10.176;2022-08-07T00:09:04;11.60;99.90
7030;DHT22;3556;53.500;10.176;2022-08-07T00:11:29;11.50;99.90
7030;DHT22;3556;53.500;10.176;2022-08-07T00:13:55;11.50;99.90
7030;DHT22;3556;53.500;10.176;2022-08-07T00:16:21;11.50;99.90
7030;DHT22;3556;53.500;10.176;2022-08-07T00:18:46;11.40;99.90
7030;DHT22;3556;53.500;10.176;2022-08-07T00:21:12;11.40;99.90
7030;DHT22;3556;53.500;10.176;2022-08-07T00:23:39;11.40;99.90
7030;DHT22;3556;53.500;10.176;2022-08-07T00:26:08;11.30;99.90
7030;DHT22;3556;53.500;10.176;2022-08-07T00:28:34;11.40;99.90
7030;DHT22;3556;53.500;10.176;2022-08-07T00:31:03;11.30;99.90
7030;DHT22;3556;53.500;10.176;2022-08-07T00:33:28;11.30;99.90
7030;DHT22;3556;53.500;10.176;2022-08-07T00:35:55;11.30;99.90
7030;DHT22;3556;53.500;10.176;2022-08-07T00:38:22;11.30;99.90
7030;DHT22;3556;53.500;10.176;2022-08-07T00:40:48;11.20;99.90
7030;DHT22;3556;53.500;10.176;2022-08-07T00:43:14;11.20;99.90
7030;DHT22;3556;53.500;10.176;2022-08-07T00:45:41;11.20;99.90
7030;DHT22;3556;53.500;10.176;2022-08-07T00:48:07;11.20;99.90
7030;DHT22;3556;53.500;10.176;2022-08-07T00:50:34;11.10;99.90
7030;DHT22;3556;53.500;10.176;2022-08-07T00:52:59;11.10;99.90
7030;DHT22;3556;53.500;10.176;2022-08-07T00:55:25;11.10;99.90
7030;DHT22;3556;53.500;10.176;2022-08-07T00:57:51;11.10;99.90
7030;DHT22;3556;53.500;10.176;2022-08-07T01:00:17;11.00;99.90
7030;DHT22;3556;53.500;10.176;2022-08-07T01:02:44;11.00;99.90
7030;DHT22;3556;53.500;10.176;2022-08-07T01:05:11;11.00;99.90
7030;DHT22;3556;53.500;10.176;2022-08-07T01:07:37;10.90;99.90
7030;DHT22;3556;53.500;10.176;2022-08-07T01:10:03;11.00;99.90
7030;DHT22;3556;53.500;10.176;2022-08-07T01:12:29;10.90;99.90
7030;DHT22;3556;53.500;10.176;2022-08-07T01:14:55;10.90;99.90
7030;DHT22;3556;53.500;10.176;2022-08-07T01:17:24;10.90;99.90
7030;DHT22;3556;53.500;10.176;2022-08-07T01:19:53;10.80;99.90
7030;DHT22;3556;53.500;10.176;2022-08-07T01:22:21;10.80;99.90
7030;DHT22;3556;53.500;10.176;2022-08-07T01:24:47;10.80;99.90
7030;DHT22;3556;53.500;10.176;2022-08-07T01:27:13;10.80;99.90
7030;DHT22;3556;53.500;10.176;2022-08-07T01:29:39;10.80;99.90
7030;DHT22;3556;53.500;10.176;2022-08-07T01:32:04;10.80;99.90
7030;DHT22;3556;53.500;10.176;2022-08-07T01:34:31;10.70;99.90
7030;DHT22;3556;53.500;10.176;2022-08-07T01:36:57;10.70;99.90
7030;DHT22;3556;53.500;10.176;2022-08-07T01:39:24;10.70;99.90
7030;DHT22;3556;53.500;10.176;2022-08-07T01:41:50;10.70;99.90
7030;DHT22;3556;53.500;10.176;2022-08-07T01:44:16;10.60;99.90
7030;DHT22;3556;53.500;10.176;2022-08-07T01:46:42;10.60;99.90
7030;DHT22;3556;53.500;10.176;2022-08-07T01:49:08;10.60;99.90
7030;DHT22;3556;53.500;10.176;2022-08-07T01:51:35;10.50;99.90
7030;DHT22;3556;53.500;10.176;2022-08-07T01:54:03;10.50;99.90
7030;DHT22;3556;53.500;10.176;2022-08-07T01:56:40;10.50;99.90
7030;DHT22;3556;53.500;10.176;2022-08-07T01:59:12;10.50;99.90
7030;DHT22;3556;53.500;10.176;2022-08-07T02:01:45;10.50;99.90
7030;DHT22;3556;53.500;10.176;2022-08-07T02:04:15;10.50;99.90
7030;DHT22;3556;53.500;10.176;2022-08-07T02:06:42;10.40;99.90
7030;DHT22;3556;53.500;10.176;2022-08-07T02:09:10;10.40;99.90
7030;DHT22;3556;53.500;10.176;2022-08-07T02:11:38;10.40;99.90
7030;DHT22;3556;53.500;10.176;2022-08-07T02:14:07;10.40;99.90
7030;DHT22;3556;53.500;10.176;2022-08-07T02:16:37;10.40;99.90
7030;DHT22;3556;53.500;10.176;2022-08-07T02:19:09;10.30;99.90
7030;DHT22;3556;53.500;10.176;2022-08-07T02:21:36;10.30;99.90
7030;DHT22;3556;53.500;10.176;2022-08-07T02:24:04;10.20;99.90
7030;DHT22;3556;53.500;10.176;2022-08-07T02:26:32;10.20;99.90
7030;DHT22;3556;53.500;10.176;2022-08-07T02:28:59;10.20;99.90
7030;DHT22;3556;53.500;10.176;2022-08-07T02:31:27;10.20;99.90
7030;DHT22;3556;53.500;10.176;2022-08-07T02:33:54;10.20;99.90
7030;DHT22;3556;53.500;10.176;2022-08-07T02:36:22;10.20;99.90
7030;DHT22;3556;53.500;10.176;2022-08-07T02:38:48;10.10;99.90
7030;DHT22;3556;53.500;10.176;2022-08-07T02:41:15;10.10;99.90
7030;DHT22;3556;53.500;10.176;2022-08-07T02:43:41;10.00;99.90
7030;DHT22;3556;53.500;10.176;2022-08-07T02:46:08;10.00;99.90
7030;DHT22;3556;53.500;10.176;2022-08-07T02:48:37;10.00;99.90
7030;DHT22;3556;53.500;10.176;2022-08-07T02:51:07;9.90;99.90
7030;DHT22;3556;53.500;10.176;2022-08-07T02:53:37;9.90;99.90
7030;DHT22;3556;53.500;10.176;2022-08-07T02:56:05;9.90;99.90
7030;DHT22;3556;53.500;10.176;2022-08-07T02:58:32;9.90;99.90
7030;DHT22;3556;53.500;10.176;2022-08-07T03:00:59;9.90;99.90
7030;DHT22;3556;53.500;10.176;2022-08-07T03:03:27;9.90;99.90
7030;DHT22;3556;53.500;10.176;2022-08-07T03:05:56;9.90;99.90
7030;DHT22;3556;53.500;10.176;2022-08-07T03:08:22;9.90;99.90
7030;DHT22;3556;53.500;10.176;2022-08-07T03:10:49;9.90;99.90
7030;DHT22;3556;53.500;10.176;2022-08-07T03:13:16;9.90;99.90
7030;DHT22;3556;53.500;10.176;2022-08-07T03:15:42;9.90;99.90
7030;DHT22;3556;53.500;10.176;2022-08-07T03:18:08;9.90;99.90
7030;DHT22;3556;53.500;10.176;2022-08-07T03:20:34;9.80;99.90
7030;DHT22;3556;53.500;10.176;2022-08-07T03:23:01;9.80;99.90
7030;DHT22;3556;53.500;10.176;2022-08-07T03:25:28;9.80;99.90
7030;DHT22;3556;53.500;10.176;2022-08-07T03:27:58;9.80;99.90
7030;DHT22;3556;53.500;10.176;2022-08-07T03:30:25;9.70;99.90
7030;DHT22;3556;53.500;10.176;2022-08-07T03:32:52;9.70;99.90
7030;DHT22;3556;53.500;10.176;2022-08-07T03:35:24;9.70;99.90
7030;DHT22;3556;53.500;10.176;2022-08-07T03:37:55;9.60;99.90
7030;DHT22;3556;53.500;10.176;2022-08-07T03:40:23;9.60;99.90
7030;DHT22;3556;53.500;10.176;2022-08-07T03:42:50;9.70;99.90
7030;DHT22;3556;53.500;10.176;2022-08-07T03:45:17;9.70;99.90
7030;DHT22;3556;53.500;10.176;2022-08-07T03:47:43;9.60;99.90
7030;DHT22;3556;53.500;10.176;2022-08-07T03:50:09;9.60;99.90
7030;DHT22;3556;53.500;10.176;2022-08-07T03:52:35;9.60;99.90
7030;DHT22;3556;53.500;10.176;2022-08-07T03:55:02;9.60;99.90
7030;DHT22;3556;53.500;10.176;2022-08-07T03:57:30;9.60;99.90
7030;DHT22;3556;53.500;10.176;2022-08-07T03:59:56;9.60;99.90
7030;DHT22;3556;53.500;10.176;2022-08-07T04:02:23;9.60;99.90
7030;DHT22;3556;53.500;10.176;2022-08-07T04:04:49;9.50;99.90
7030;DHT22;3556;53.500;10.176;2022-08-07T04:07:19;9.50;99.90
7030;DHT22;3556;53.500;10.176;2022-08-07T04:09:45;9.50;99.90
7030;DHT22;3556;53.500;10.176;2022-08-07T04:12:12;9.50;99.90
7030;DHT22;3556;53.500;10.176;2022-08-07T04:14:39;9.50;99.90
7030;DHT22;3556;53.500;10.176;2022-08-07T04:17:05;9.50;99.90
7030;DHT22;3556;53.500;10.176;2022-08-07T04:19:31;9.50;99.90
7030;DHT22;3556;53.500;10.176;2022-08-07T04:21:57;9.50;99.90
7030;DHT22;3556;53.500;10.176;2022-08-07T04:24:23;9.50;99.90
7030;DHT22;3556;53.500;10.176;2022-08-07T04:26:49;9.50;99.90
7030;DHT22;3556;53.500;10.176;2022-08-07T04:29:14;9.50;99.90
7030;DHT22;3556;53.500;10.176;2022-08-07T04:31:40;9.60;99.90
7030;DHT22;3556;53.500;10.176;2022-08-07T04:34:09;9.60;99.90
7030;DHT22;3556;53.500;10.176;2022-08-07T04:36:35;9.60;99.90
7030;DHT22;3556;53.500;10.176;2022-08-07T04:39:03;9.70;99.90
7030;DHT22;3556;53.500;10.176;2022-08-07T04:41:29;9.70;99.90
7030;DHT22;3556;53.500;10.176;2022-08-07T04:43:55;9.70;99.90
7030;DHT22;3556;53.500;10.176;2022-08-07T04:59:58;10.10;99.90
7030;DHT22;3556;53.500;10.176;2022-08-07T05:02:31;10.10;99.90
7030;DHT22;3556;53.500;10.176;2022-08-07T05:04:59;10.20;99.90
7030;DHT22;3556;53.500;10.176;2022-08-07T05:13:50;10.40;99.90
7030;DHT22;3556;53.500;10.176;2022-08-07T05:16:17;10.40;99.90
7030;DHT22;3556;53.500;10.176;2022-08-07T05:18:50;10.50;99.90
7030;DHT22;3556;53.500;10.176;2022-08-07T05:21:20;10.60;99.90
7030;DHT22;3556;53.500;10.176;2022-08-07T05:23:52;10.70;99.90
7030;DHT22;3556;53.500;10.176;2022-08-07T05:26:21;10.70;99.90
7030;DHT22;3556;53.500;10.176;2022-08-07T05:28:49;10.80;99.90
7030;DHT22;3556;53.500;10.176;2022-08-07T05:31:17;10.90;99.90
7030;DHT22;3556;53.500;10.176;2022-08-07T05:33:44;11.10;99.90
7030;DHT22;3556;53.500;10.176;2022-08-07T05:36:11;11.20;99.90
7030;DHT22;3556;53.500;10.176;2022-08-07T05:38:38;11.30;99.90
7030;DHT22;3556;53.500;10.176;2022-08-07T05:41:05;11.40;99.90
7030;DHT22;3556;53.500;10.176;2022-08-07T05:43:32;11.60;99.90
7030;DHT22;3556;53.500;10.176;2022-08-07T05:45:59;11.70;99.90
7030;DHT22;3556;53.500;10.176;2022-08-07T05:48:27;11.80;99.90
7030;DHT22;3556;53.500;10.176;2022-08-07T05:50:58;11.90;99.90
7030;DHT22;3556;53.500;10.176;2022-08-07T05:53:25;12.00;99.90
7030;DHT22;3556;53.500;10.176;2022-08-07T05:55:52;12.10;99.90
7030;DHT22;3556;53.500;10.176;2022-08-07T05:58:19;12.30;99.90
7030;DHT22;3556;53.500;10.176;2022-08-07T06:00:46;12.40;99.90
7030;DHT22;3556;53.500;10.176;2022-08-07T06:03:13;12.50;99.90
7030;DHT22;3556;53.500;10.176;2022-08-07T06:05:41;12.60;99.90
7030;DHT22;3556;53.500;10.176;2022-08-07T06:08:07;12.70;99.90
7030;DHT22;3556;53.500;10.176;2022-08-07T06:10:35;12.90;99.90
7030;DHT22;3556;53.500;10.176;2022-08-07T06:13:01;13.00;99.90
7030;DHT22;3556;53.500;10.176;2022-08-07T06:15:28;13.10;99.90
7030;DHT22;3556;53.500;10.176;2022-08-07T06:17:54;13.20;99.90
7030;DHT22;3556;53.500;10.176;2022-08-07T06:20:23;13.40;99.90
7030;DHT22;3556;53.500;10.176;2022-08-07T06:22:50;13.50;99.90
7030;DHT22;3556;53.500;10.176;2022-08-07T06:25:16;13.60;99.90
7030;DHT22;3556;53.500;10.176;2022-08-07T06:27:42;13.70;99.90
7030;DHT22;3556;53.500;10.176;2022-08-07T06:30:08;13.90;99.90
7030;DHT22;3556;53.500;10.176;2022-08-07T06:32:34;13.90;99.90
7030;DHT22;3556;53.500;10.176;2022-08-07T06:34:59;14.10;99.90
7030;DHT22;3556;53.500;10.176;2022-08-07T06:37:25;14.10;99.90
7030;DHT22;3556;53.500;10.176;2022-08-07T06:39:51;14.20;99.90
7030;DHT22;3556;53.500;10.176;2022-08-07T06:42:23;14.30;99.90
7030;DHT22;3556;53.500;10.176;2022-08-07T06:44:50;14.40;99.90
7030;DHT22;3556;53.500;10.176;2022-08-07T06:47:17;14.60;99.90
7030;DHT22;3556;53.500;10.176;2022-08-07T06:49:43;14.80;99.90
7030;DHT22;3556;53.500;10.176;2022-08-07T06:52:10;14.90;99.90
7030;DHT22;3556;53.500;10.176;2022-08-07T06:54:40;15.00;99.90
7030;DHT22;3556;53.500;10.176;2022-08-07T06:57:09;15.10;99.90
7030;DHT22;3556;53.500;10.176;2022-08-07T06:59:39;15.10;99.90
7030;DHT22;3556;53.500;10.176;2022-08-07T07:02:08;15.20;99.90
7030;DHT22;3556;53.500;10.176;2022-08-07T07:04:38;15.30;99.90
7030;DHT22;3556;53.500;10.176;2022-08-07T07:07:03;15.40;99.90
7030;DHT22;3556;53.500;10.176;2022-08-07T07:09:32;15.50;99.90
7030;DHT22;3556;53.500;10.176;2022-08-07T07:17:29;15.80;99.90
7030;DHT22;3556;53.500;10.176;2022-08-07T07:19:58;15.90;99.90
7030;DHT22;3556;53.500;10.176;2022-08-07T07:22:26;16.00;99.90
7030;DHT22;3556;53.500;10.176;2022-08-07T07:24:53;16.10;99.90
7030;DHT22;3556;53.500;10.176;2022-08-07T07:27:21;16.20;99.90
7030;DHT22;3556;53.500;10.176;2022-08-07T07:29:51;16.30;99.90
7030;DHT22;3556;53.500;10.176;2022-08-07T07:32:20;16.50;99.90
7030;DHT22;3556;53.500;10.176;2022-08-07T07:34:51;16.60;99.90
7030;DHT22;3556;53.500;10.176;2022-08-07T07:37:19;16.70;99.90
7030;DHT22;3556;53.500;10.176;2022-08-07T07:39:46;16.80;99.90
7030;DHT22;3556;53.500;10.176;2022-08-07T07:42:14;16.70;99.90
7030;DHT22;3556;53.500;10.176;2022-08-07T07:44:43;16.90;99.90
7030;DHT22;3556;53.500;10.176;2022-08-07T07:47:11;16.90;99.90
7030;DHT22;3556;53.500;10.176;2022-08-07T07:49:39;17.00;99.90
7030;DHT22;3556;53.500;10.176;2022-08-07T07:52:07;17.20;99.90
7030;DHT22;3556;53.500;10.176;2022-08-07T07:54:34;17.20;99.90
7030;DHT22;3556;53.500;10.176;2022-08-07T07:57:01;17.30;99.90
7030;DHT22;3556;53.500;10.176;2022-08-07T07:59:27;17.30;99.90
7030;DHT22;3556;53.500;10.176;2022-08-07T08:01:54;17.40;99.90
7030;DHT22;3556;53.500;10.176;2022-08-07T08:04:22;17.50;99.90
7030;DHT22;3556;53.500;10.176;2022-08-07T08:06:48;17.50;99.90
7030;DHT22;3556;53.500;10.176;2022-08-07T08:09:18;17.60;99.90
7030;DHT22;3556;53.500;10.176;2022-08-07T08:11:45;17.70;99.90
7030;DHT22;3556;53.500;10.176;2022-08-07T08:14:11;17.80;99.90
7030;DHT22;3556;53.500;10.176;2022-08-07T08:16:42;17.90;99.90
7030;DHT22;3556;53.500;10.176;2022-08-07T08:19:13;18.00;99.90
7030;DHT22;3556;53.500;10.176;2022-08-07T08:21:41;18.10;99.90
7030;DHT22;3556;53.500;10.176;2022-08-07T08:24:30;18.10;99.90
7030;DHT22;3556;53.500;10.176;2022-08-07T08:27:16;18.20;99.90
7030;DHT22;3556;53.500;10.176;2022-08-07T08:29:48;18.20;99.90
7030;DHT22;3556;53.500;10.176;2022-08-07T08:32:17;18.30;99.90
7030;DHT22;3556;53.500;10.176;2022-08-07T08:34:43;18.30;99.90
7030;DHT22;3556;53.500;10.176;2022-08-07T08:37:11;18.40;99.90
7030;DHT22;3556;53.500;10.176;2022-08-07T08:39:39;18.50;99.90
7030;DHT22;3556;53.500;10.176;2022-08-07T08:42:18;18.50;99.90
7030;DHT22;3556;53.500;10.176;2022-08-07T08:45:08;18.70;99.90
7030;DHT22;3556;53.500;10.176;2022-08-07T08:50:21;18.80;99.90
7030;DHT22;3556;53.500;10.176;2022-08-07T08:55:57;19.00;99.90
7030;DHT22;3556;53.500;10.176;2022-08-07T08:58:47;19.20;99.90
7030;DHT22;3556;53.500;10.176;2022-08-07T09:01:21;19.20;99.90
7030;DHT22;3556;53.500;10.176;2022-08-07T09:04:14;19.20;99.90
7030;DHT22;3556;53.500;10.176;2022-08-07T09:10:13;19.40;99.90
7030;DHT22;3556;53.500;10.176;2022-08-07T09:12:58;19.40;99.90
7030;DHT22;3556;53.500;10.176;2022-08-07T09:15:38;19.50;99.90
7030;DHT22;3556;53.500;10.176;2022-08-07T09:38:05;20.60;99.00
7030;DHT22;3556;53.500;10.176;2022-08-07T09:49:40;21.10;97.60
7030;DHT22;3556;53.500;10.176;2022-08-07T09:52:05;21.30;97.80
7030;DHT22;3556;53.500;10.176;2022-08-07T09:54:46;21.30;97.80
7030;DHT22;3556;53.500;10.176;2022-08-07T10:00:13;21.40;96.40
7030;DHT22;3556;53.500;10.176;2022-08-07T10:25:53;22.10;94.40
7030;DHT22;3556;53.500;10.176;2022-08-07T10:36:58;21.80;95.50
7030;DHT22;3556;53.500;10.176;2022-08-07T10:42:40;21.50;94.30
7030;DHT22;3556;53.500;10.176;2022-08-07T10:45:26;21.50;95.60
7030;DHT22;3556;53.500;10.176;2022-08-07T10:50:28;21.80;92.70
7030;DHT22;3556;53.500;10.176;2022-08-07T10:56:02;22.30;92.90
7030;DHT22;3556;53.500;10.176;2022-08-07T11:01:16;22.60;91.60
7030;DHT22;3556;53.500;10.176;2022-08-07T11:03:50;22.70;91.40
7030;DHT22;3556;53.500;10.176;2022-08-07T11:06:27;22.60;92.30
7030;DHT22;3556;53.500;10.176;2022-08-07T11:09:01;22.60;91.30
7030;DHT22;3556;53.500;10.176;2022-08-07T11:11:38;22.60;91.30
7030;DHT22;3556;53.500;10.176;2022-08-07T11:14:21;22.60;91.40
7030;DHT22;3556;53.500;10.176;2022-08-07T11:16:59;22.50;90.80
7030;DHT22;3556;53.500;10.176;2022-08-07T11:19:34;22.60;91.30
7030;DHT22;3556;53.500;10.176;2022-08-07T11:22:10;22.80;91.00
7030;DHT22;3556;53.500;10.176;2022-08-07T11:25:10;23.00;90.90
7030;DHT22;3556;53.500;10.176;2022-08-07T11:33:18;23.30;90.00
7030;DHT22;3556;53.500;10.176;2022-08-07T11:36:08;23.40;87.50
7030;DHT22;3556;53.500;10.176;2022-08-07T11:39:08;23.60;87.30
7030;DHT22;3556;53.500;10.176;2022-08-07T11:42:21;23.70;84.50
7030;DHT22;3556;53.500;10.176;2022-08-07T11:44:54;24.00;87.70
7030;DHT22;3556;53.500;10.176;2022-08-07T11:50:23;24.50;86.20
7030;DHT22;3556;53.500;10.176;2022-08-07T11:53:02;24.60;86.30
7030;DHT22;3556;53.500;10.176;2022-08-07T11:55:58;24.40;81.00
7030;DHT22;3556;53.500;10.176;2022-08-07T11:58:48;24.10;81.30
7030;DHT22;3556;53.500;10.176;2022-08-07T12:01:45;23.90;82.20
7030;DHT22;3556;53.500;10.176;2022-08-07T12:06:53;23.50;84.00
7030;DHT22;3556;53.500;10.176;2022-08-07T12:09:25;23.20;81.70
7030;DHT22;3556;53.500;10.176;2022-08-07T12:14:24;22.80;84.60
7030;DHT22;3556;53.500;10.176;2022-08-07T12:17:06;23.00;88.20
7030;DHT22;3556;53.500;10.176;2022-08-07T12:19:54;23.20;88.90
7030;DHT22;3556;53.500;10.176;2022-08-07T12:25:27;23.40;84.40
7030;DHT22;3556;53.500;10.176;2022-08-07T12:31:40;23.30;86.10
7030;DHT22;3556;53.500;10.176;2022-08-07T12:34:10;23.30;84.40
7030;DHT22;3556;53.500;10.176;2022-08-07T12:36:36;23.20;84.90
7030;DHT22;3556;53.500;10.176;2022-08-07T12:39:06;23.20;87.10
7030;DHT22;3556;53.500;10.176;2022-08-07T12:41:37;23.20;86.00
7030;DHT22;3556;53.500;10.176;2022-08-07T12:44:06;23.10;84.80
7030;DHT22;3556;53.500;10.176;2022-08-07T12:46:56;23.10;83.50
7030;DHT22;3556;53.500;10.176;2022-08-07T12:49:52;23.30;86.00
7030;DHT22;3556;53.500;10.176;2022-08-07T12:52:40;23.80;81.80
7030;DHT22;3556;53.500;10.176;2022-08-07T12:55:28;24.50;84.40
7030;DHT22;3556;53.500;10.176;2022-08-07T12:57:57;25.10;78.60
7030;DHT22;3556;53.500;10.176;2022-08-07T13:00:30;25.70;80.00
7030;DHT22;3556;53.500;10.176;2022-08-07T13:05:57;26.30;72.70
7030;DHT22;3556;53.500;10.176;2022-08-07T13:17:11;26.40;72.50
7030;DHT22;3556;53.500;10.176;2022-08-07T13:19:50;26.40;70.70
7030;DHT22;3556;53.500;10.176;2022-08-07T13:22:25;26.20;69.30
7030;DHT22;3556;53.500;10.176;2022-08-07T13:27:39;26.60;72.10
7030;DHT22;3556;53.500;10.176;2022-08-07T13:30:10;27.00;70.60
7030;DHT22;3556;53.500;10.176;2022-08-07T13:33:02;27.20;68.40
7030;DHT22;3556;53.500;10.176;2022-08-07T13:41:38;28.20;69.80
7030;DHT22;3556;53.500;10.176;2022-08-07T13:44:04;28.80;66.40
7030;DHT22;3556;53.500;10.176;2022-08-07T13:46:34;28.90;62.70
7030;DHT22;3556;53.500;10.176;2022-08-07T13:49:04;29.20;65.90
7030;DHT22;3556;53.500;10.176;2022-08-07T13:51:33;29.30;59.20
7030;DHT22;3556;53.500;10.176;2022-08-07T13:54:11;28.90;58.10
7030;DHT22;3556;53.500;10.176;2022-08-07T13:56:41;29.00;63.10
7030;DHT22;3556;53.500;10.176;2022-08-07T13:59:11;29.20;58.70
7030;DHT22;3556;53.500;10.176;2022-08-07T14:01:44;29.30;58.20
7030;DHT22;3556;53.500;10.176;2022-08-07T14:04:15;29.40;59.00
7030;DHT22;3556;53.500;10.176;2022-08-07T14:06:43;29.60;58.40
7030;DHT22;3556;53.500;10.176;2022-08-07T14:09:19;29.70;58.60
7030;DHT22;3556;53.500;10.176;2022-08-07T14:11:49;29.90;57.80
7030;DHT22;3556;53.500;10.176;2022-08-07T14:14:19;29.70;57.60
7030;DHT22;3556;53.500;10.176;2022-08-07T14:16:46;29.80;58.20
7030;DHT22;3556;53.500;10.176;2022-08-07T14:19:37;29.90;58.10
7030;DHT22;3556;53.500;10.176;2022-08-07T14:22:09;30.10;58.10
7030;DHT22;3556;53.500;10.176;2022-08-07T14:24:41;30.20;58.50
7030;DHT22;3556;53.500;10.176;2022-08-07T14:27:11;29.90;55.60
7030;DHT22;3556;53.500;10.176;2022-08-07T14:30:03;29.80;58.10
7030;DHT22;3556;53.500;10.176;2022-08-07T14:32:30;29.80;58.70
7030;DHT22;3556;53.500;10.176;2022-08-07T14:35:01;29.80;56.90
7030;DHT22;3556;53.500;10.176;2022-08-07T14:37:27;29.90;57.40
7030;DHT22;3556;53.500;10.176;2022-08-07T14:39:54;29.80;55.80
7030;DHT22;3556;53.500;10.176;2022-08-07T14:42:26;29.90;56.00
7030;DHT22;3556;53.500;10.176;2022-08-07T14:44:57;30.00;57.70
7030;DHT22;3556;53.500;10.176;2022-08-07T14:47:25;29.90;58.50
7030;DHT22;3556;53.500;10.176;2022-08-07T14:49:51;29.90;60.00
7030;DHT22;3556;53.500;10.176;2022-08-07T14:52:18;29.90;60.00
7030;DHT22;3556;53.500;10.176;2022-08-07T14:54:48;30.00;56.60
7030;DHT22;3556;53.500;10.176;2022-08-07T14:57:16;29.90;54.80
7030;DHT22;3556;53.500;10.176;2022-08-07T14:59:43;29.70;55.30
7030;DHT22;3556;53.500;10.176;2022-08-07T15:02:11;29.60;52.50
7030;DHT22;3556;53.500;10.176;2022-08-07T15:04:40;29.50;55.70
7030;DHT22;3556;53.500;10.176;2022-08-07T15:07:08;29.30;57.30
7030;DHT22;3556;53.500;10.176;2022-08-07T15:09:38;29.30;53.90
7030;DHT22;3556;53.500;10.176;2022-08-07T15:12:09;29.00;53.90
7030;DHT22;3556;53.500;10.176;2022-08-07T15:14:36;28.80;57.00
7030;DHT22;3556;53.500;10.176;2022-08-07T15:17:13;28.80;53.70
7030;DHT22;3556;53.500;10.176;2022-08-07T15:19:49;28.70;57.80
7030;DHT22;3556;53.500;10.176;2022-08-07T15:22:16;28.60;56.20
7030;DHT22;3556;53.500;10.176;2022-08-07T15:24:46;28.30;56.50
7030;DHT22;3556;53.500;10.176;2022-08-07T15:27:19;28.30;55.80
7030;DHT22;3556;53.500;10.176;2022-08-07T15:29:52;28.10;53.10
7030;DHT22;3556;53.500;10.176;2022-08-07T15:32:20;27.90;55.90
7030;DHT22;3556;53.500;10.176;2022-08-07T15:34:49;27.90;57.90
7030;DHT22;3556;53.500;10.176;2022-08-07T15:37:18;27.80;56.10
7030;DHT22;3556;53.500;10.176;2022-08-07T15:39:53;27.80;56.10
7030;DHT22;3556;53.500;10.176;2022-08-07T15:47:53;26.90;53.70
7030;DHT22;3556;53.500;10.176;2022-08-07T15:50:21;26.70;61.90
7030;DHT22;3556;53.500;10.176;2022-08-07T15:52:59;26.60;58.00
7030;DHT22;3556;53.500;10.176;2022-08-07T15:55:25;26.50;57.70
7030;DHT22;3556;53.500;10.176;2022-08-07T15:57:54;26.50;59.80
7030;DHT22;3556;53.500;10.176;2022-08-07T16:00:22;26.40;55.20
7030;DHT22;3556;53.500;10.176;2022-08-07T16:02:56;26.20;57.00
7030;DHT22;3556;53.500;10.176;2022-08-07T16:05:23;25.90;60.50
7030;DHT22;3556;53.500;10.176;2022-08-07T16:07:53;25.90;60.50
7030;DHT22;3556;53.500;10.176;2022-08-07T16:10:25;25.80;57.90
7030;DHT22;3556;53.500;10.176;2022-08-07T16:37:12;24.70;59.80
7030;DHT22;3556;53.500;10.176;2022-08-07T16:42:58;24.30;62.30
7030;DHT22;3556;53.500;10.176;2022-08-07T16:54:36;23.90;60.80
7030;DHT22;3556;53.500;10.176;2022-08-07T16:57:23;23.70;61.30
7030;DHT22;3556;53.500;10.176;2022-08-07T16:59:49;23.60;62.60
7030;DHT22;3556;53.500;10.176;2022-08-07T17:04:59;23.50;66.80
7030;DHT22;3556;53.500;10.176;2022-08-07T17:10:47;23.40;65.00
7030;DHT22;3556;53.500;10.176;2022-08-07T17:21:03;23.20;67.50
7030;DHT22;3556;53.500;10.176;2022-08-07T17:23:43;23.20;65.90
7030;DHT22;3556;53.500;10.176;2022-08-07T17:26:35;23.00;65.10
7030;DHT22;3556;53.500;10.176;2022-08-07T17:29:20;22.90;68.00
7030;DHT22;3556;53.500;10.176;2022-08-07T17:31:52;22.90;67.80
7030;DHT22;3556;53.500;10.176;2022-08-07T17:34:31;22.80;67.20
7030;DHT22;3556;53.500;10.176;2022-08-07T17:37:02;22.80;68.80
7030;DHT22;3556;53.500;10.176;2022-08-07T17:42:14;22.70;70.40
7030;DHT22;3556;53.500;10.176;2022-08-07T17:44:51;22.60;70.00
7030;DHT22;3556;53.500;10.176;2022-08-07T17:49:55;22.50;69.60
7030;DHT22;3556;53.500;10.176;2022-08-07T17:52:36;22.40;71.50
7030;DHT22;3556;53.500;10.176;2022-08-07T17:55:14;22.30;70.90
7030;DHT22;3556;53.500;10.176;2022-08-07T17:58:01;22.10;71.80
7030;DHT22;3556;53.500;10.176;2022-08-07T18:00:29;22.00;72.30
7030;DHT22;3556;53.500;10.176;2022-08-07T18:03:05;21.90;73.60
7030;DHT22;3556;53.500;10.176;2022-08-07T18:05:44;21.80;72.20
7030;DHT22;3556;53.500;10.176;2022-08-07T18:08:26;21.80;73.50
7030;DHT22;3556;53.500;10.176;2022-08-07T18:16:32;21.50;73.70
7030;DHT22;3556;53.500;10.176;2022-08-07T18:21:54;21.30;75.50
7030;DHT22;3556;53.500;10.176;2022-08-07T18:27:27;21.10;78.40
7030;DHT22;3556;53.500;10.176;2022-08-07T18:32:39;20.90;79.70
7030;DHT22;3556;53.500;10.176;2022-08-07T18:35:15;20.90;81.00
7030;DHT22;3556;53.500;10.176;2022-08-07T18:40:37;20.70;83.30
7030;DHT22;3556;53.500;10.176;2022-08-07T18:46:12;20.50;85.30
7030;DHT22;3556;53.500;10.176;2022-08-07T18:48:43;20.40;85.60
7030;DHT22;3556;53.500;10.176;2022-08-07T18:52:06;20.30;85.00
7030;DHT22;3556;53.500;10.176;2022-08-07T18:56:44;20.10;86.30
7030;DHT22;3556;53.500;10.176;2022-08-07T19:01:55;19.90;88.20
7030;DHT22;3556;53.500;10.176;2022-08-07T19:07:07;19.70;89.80
7030;DHT22;3556;53.500;10.176;2022-08-07T19:09:52;19.60;90.30
7030;DHT22;3556;53.500;10.176;2022-08-07T19:12:22;19.60;90.90
7030;DHT22;3556;53.500;10.176;2022-08-07T19:17:25;19.40;92.40
7030;DHT22;3556;53.500;10.176;2022-08-07T19:20:05;19.30;92.20
7030;DHT22;3556;53.500;10.176;2022-08-07T19:25:18;19.10;92.80
7030;DHT22;3556;53.500;10.176;2022-08-07T19:27:45;19.00;93.20
7030;DHT22;3556;53.500;10.176;2022-08-07T19:30:13;19.00;93.60
7030;DHT22;3556;53.500;10.176;2022-08-07T19:32:42;18.90;94.40
7030;DHT22;3556;53.500;10.176;2022-08-07T19:35:21;18.80;95.10
7030;DHT22;3556;53.500;10.176;2022-08-07T19:37:57;18.80;95.70
7030;DHT22;3556;53.500;10.176;2022-08-07T19:40:26;18.70;96.30
7030;DHT22;3556;53.500;10.176;2022-08-07T19:42:53;18.60;96.30
7030;DHT22;3556;53.500;10.176;2022-08-07T19:45:22;18.50;96.20
7030;DHT22;3556;53.500;10.176;2022-08-07T19:47:51;18.40;96.40
7030;DHT22;3556;53.500;10.176;2022-08-07T19:50:18;18.30;96.50
7030;DHT22;3556;53.500;10.176;2022-08-07T19:52:46;18.20;96.50
7030;DHT22;3556;53.500;10.176;2022-08-07T19:55:17;18.10;96.80
7030;DHT22;3556;53.500;10.176;2022-08-07T19:57:46;18.10;97.50
7030;DHT22;3556;53.500;10.176;2022-08-07T20:00:18;18.00;98.20
7030;DHT22;3556;53.500;10.176;2022-08-07T20:02:52;17.90;99.50
7030;DHT22;3556;53.500;10.176;2022-08-07T20:05:29;17.90;99.70
7030;DHT22;3556;53.500;10.176;2022-08-07T20:08:06;17.80;99.90
7030;DHT22;3556;53.500;10.176;2022-08-07T20:10:34;17.80;99.90
7030;DHT22;3556;53.500;10.176;2022-08-07T20:13:08;17.70;99.90
7030;DHT22;3556;53.500;10.176;2022-08-07T20:15:36;17.60;99.90